sensor_id;sensor_type;location;lat;lon;timestamp;P1;P2;P0
65680;PMS5003;61747;54.966;73.394;2022-10-04T00:02:54;1.25;1.25;0.00
65680;PMS5003;61747;54.966;73.394;2022-10-04T00:05:33;2.00;2.00;0.00
65680;PMS5003;61747;54.966;73.394;2022-10-04T00:08:01;1.00;1.00;0.00
65680;PMS5003;61747;54.966;73.394;2022-10-04T00:10:38;0.50;0.50;0.00
65680;PMS5003;61747;54.966;73.394;2022-10-04T00:13:06;0.00;0.00;0.00
65680;PMS5003;61747;54.966;73.394;2022-10-04T00:15:39;0.50;0.50;0.00
65680;PMS5003;61747;54.966;73.394;2022-10-04T00:25:47;5.00;3.00;0.00
65680;PMS5003;61747;54.966;73.394;2022-10-04T00:31:05;3.00;3.00;1.00
65680;PMS5003;61747;54.966;73.394;2022-10-04T00:33:41;2.00;2.00;0.00
65680;PMS5003;61747;54.966;73.394;2022-10-04T00:39:13;3.00;2.00;0.00
65680;PMS5003;61747;54.966;73.394;2022-10-04T00:46:50;2.00;2.00;0.00
65680;PMS5003;61747;54.966;73.394;2022-10-04T00:49:23;0.00;0.00;0.00
65680;PMS5003;61747;54.966;73.394;2022-10-04T00:52:02;2.00;1.00;0.00
65680;PMS5003;61747;54.966;73.394;2022-10-04T00:54:31;3.00;2.00;0.00
65680;PMS5003;61747;54.966;73.394;2022-10-04T00:57:10;2.00;2.00;0.00
65680;PMS5003;61747;54.966;73.394;2022-10-04T00:59:41;2.00;2.00;0.00
65680;PMS5003;61747;54.966;73.394;2022-10-04T01:04:41;2.00;2.00;0.00
65680;PMS5003;61747;54.966;73.394;2022-10-04T01:07:08;3.00;2.00;0.00
65680;PMS5003;61747;54.966;73.394;2022-10-04T01:09:37;2.75;1.00;0.00
65680;PMS5003;61747;54.966;73.394;2022-10-04T01:12:17;2.00;0.00;0.00
65680;PMS5003;61747;54.966;73.394;2022-10-04T01:15:29;2.00;0.00;0.00
65680;PMS5003;61747;54.966;73.394;2022-10-04T01:17:36;2.00;1.00;0.00
65680;PMS5003;61747;54.966;73.394;2022-10-04T01:20:01;2.00;2.00;0.00
65680;PMS5003;61747;54.966;73.394;2022-10-04T01:25:12;2.50;2.00;0.00
65680;PMS5003;61747;54.966;73.394;2022-10-04T01:27:58;2.00;2.00;0.00
65680;PMS5003;61747;54.966;73.394;2022-10-04T01:30:23;3.00;3.00;0.00
65680;PMS5003;61747;54.966;73.394;2022-10-04T01:32:49;4.00;3.00;0.00
65680;PMS5003;61747;54.966;73.394;2022-10-04T01:35:20;2.00;2.00;0.00
65680;PMS5003;61747;54.966;73.394;2022-10-04T01:37:46;2.00;2.00;0.00
65680;PMS5003;61747;54.966;73.394;2022-10-04T01:40:11;2.00;2.00;0.00
65680;PMS5003;61747;54.966;73.394;2022-10-04T01:42:44;1.00;1.00;0.00
65680;PMS5003;61747;54.966;73.394;2022-10-04T01:48:00;3.00;3.00;0.00
65680;PMS5003;61747;54.966;73.394;2022-10-04T01:50:30;4.00;4.00;1.00
65680;PMS5003;61747;54.966;73.394;2022-10-04T01:53:00;4.00;3.00;1.00
65680;PMS5003;61747;54.966;73.394;2022-10-04T01:55:34;3.00;3.00;1.00
65680;PMS5003;61747;54.966;73.394;2022-10-04T01:58:23;3.00;3.00;1.00
65680;PMS5003;61747;54.966;73.394;2022-10-04T02:00:49;3.00;3.00;2.00
65680;PMS5003;61747;54.966;73.394;2022-10-04T02:03:38;5.00;4.00;2.00
65680;PMS5003;61747;54.966;73.394;2022-10-04T02:06:02;4.00;4.00;2.00
65680;PMS5003;61747;54.966;73.394;2022-10-04T02:08:29;3.00;3.00;2.00
65680;PMS5003;61747;54.966;73.394;2022-10-04T02:10:57;3.00;2.75;2.00
65680;PMS5003;61747;54.966;73.394;2022-10-04T02:13:25;6.00;3.00;2.00
65680;PMS5003;61747;54.966;73.394;2022-10-04T02:15:53;5.00;4.00;2.00
65680;PMS5003;61747;54.966;73.394;2022-10-04T02:18:23;3.00;3.00;2.00
65680;PMS5003;61747;54.966;73.394;2022-10-04T02:20:50;3.00;3.00;1.00
65680;PMS5003;61747;54.966;73.394;2022-10-04T02:23:18;3.75;3.00;0.00
65680;PMS5003;61747;54.966;73.394;2022-10-04T02:25:44;4.00;4.00;0.00
65680;PMS5003;61747;54.966;73.394;2022-10-04T02:28:10;5.00;5.00;0.00
65680;PMS5003;61747;54.966;73.394;2022-10-04T02:30:39;3.00;3.00;1.00
65680;PMS5003;61747;54.966;73.394;2022-10-04T02:33:06;5.00;4.00;2.00
65680;PMS5003;61747;54.966;73.394;2022-10-04T02:35:32;6.00;4.25;2.00
65680;PMS5003;61747;54.966;73.394;2022-10-04T02:38:02;5.50;4.00;2.00
65680;PMS5003;61747;54.966;73.394;2022-10-04T02:40:32;6.00;5.25;3.00
65680;PMS5003;61747;54.966;73.394;2022-10-04T02:43:14;6.00;5.75;3.00
65680;PMS5003;61747;54.966;73.394;2022-10-04T02:45:43;7.00;5.00;2.00
65680;PMS5003;61747;54.966;73.394;2022-10-04T02:48:25;6.00;5.00;3.00
65680;PMS5003;61747;54.966;73.394;2022-10-04T02:50:52;7.00;6.00;3.00
65680;PMS5003;61747;54.966;73.394;2022-10-04T02:53:26;7.00;6.00;3.00
65680;PMS5003;61747;54.966;73.394;2022-10-04T02:56:00;4.00;4.00;1.00
65680;PMS5003;61747;54.966;73.394;2022-10-04T02:58:26;4.25;3.00;2.00
65680;PMS5003;61747;54.966;73.394;2022-10-04T03:00:56;5.00;4.00;0.75
65680;PMS5003;61747;54.966;73.394;2022-10-04T03:08:23;4.00;3.00;3.00
65680;PMS5003;61747;54.966;73.394;2022-10-04T03:10:49;3.75;3.00;1.00
65680;PMS5003;61747;54.966;73.394;2022-10-04T03:13:25;3.00;3.00;2.00
65680;PMS5003;61747;54.966;73.394;2022-10-04T03:15:51;3.00;3.00;1.00
65680;PMS5003;61747;54.966;73.394;2022-10-04T03:18:17;3.67;3.00;1.00
65680;PMS5003;61747;54.966;73.394;2022-10-04T03:20:44;4.00;3.00;1.00
65680;PMS5003;61747;54.966;73.394;2022-10-04T03:23:10;5.75;4.00;1.25
65680;PMS5003;61747;54.966;73.394;2022-10-04T03:25:51;5.00;4.00;2.00
65680;PMS5003;61747;54.966;73.394;2022-10-04T03:28:27;5.25;4.25;1.00
65680;PMS5003;61747;54.966;73.394;2022-10-04T03:30:53;5.00;4.50;1.75
65680;PMS5003;61747;54.966;73.394;2022-10-04T03:33:25;5.50;4.50;2.00
65680;PMS5003;61747;54.966;73.394;2022-10-04T03:35:53;5.00;3.00;1.00
65680;PMS5003;61747;54.966;73.394;2022-10-04T03:38:19;6.00;6.00;3.00
65680;PMS5003;61747;54.966;73.394;2022-10-04T03:40:48;6.00;3.25;2.00
65680;PMS5003;61747;54.966;73.394;2022-10-04T03:43:16;3.00;3.00;2.00
65680;PMS5003;61747;54.966;73.394;2022-10-04T03:45:41;4.00;4.00;2.00
65680;PMS5003;61747;54.966;73.394;2022-10-04T03:48:10;3.00;3.00;1.00
65680;PMS5003;61747;54.966;73.394;2022-10-04T03:50:38;4.00;3.50;2.00
65680;PMS5003;61747;54.966;73.394;2022-10-04T03:53:11;4.00;3.00;2.00
65680;PMS5003;61747;54.966;73.394;2022-10-04T03:55:39;4.75;4.00;1.50
65680;PMS5003;61747;54.966;73.394;2022-10-04T03:58:08;3.50;3.00;2.00
65680;PMS5003;61747;54.966;73.394;2022-10-04T04:00:36;3.00;3.00;1.00
65680;PMS5003;61747;54.966;73.394;2022-10-04T04:03:11;4.00;4.00;2.00
65680;PMS5003;61747;54.966;73.394;2022-10-04T04:05:41;5.00;4.00;1.00
65680;PMS5003;61747;54.966;73.394;2022-10-04T04:08:16;4.00;4.00;1.00
65680;PMS5003;61747;54.966;73.394;2022-10-04T04:10:51;3.00;3.00;0.50
65680;PMS5003;61747;54.966;73.394;2022-10-04T04:13:30;3.00;2.25;1.00
65680;PMS5003;61747;54.966;73.394;2022-10-04T04:16:00;3.00;3.00;1.00
65680;PMS5003;61747;54.966;73.394;2022-10-04T04:18:28;3.25;3.00;1.00
65680;PMS5003;61747;54.966;73.394;2022-10-04T04:20:55;3.00;2.00;0.00
65680;PMS5003;61747;54.966;73.394;2022-10-04T04:26:00;3.00;2.50;0.00
65680;PMS5003;61747;54.966;73.394;2022-10-04T04:28:40;4.00;3.00;0.00
65680;PMS5003;61747;54.966;73.394;2022-10-04T04:31:08;3.00;3.00;0.00
65680;PMS5003;61747;54.966;73.394;2022-10-04T04:36:15;3.00;3.00;1.00
65680;PMS5003;61747;54.966;73.394;2022-10-04T04:38:41;4.00;3.00;0.00
65680;PMS5003;61747;54.966;73.394;2022-10-04T04:41:28;3.00;2.25;0.00
65680;PMS5003;61747;54.966;73.394;2022-10-04T04:44:01;1.00;1.00;0.00
65680;PMS5003;61747;54.966;73.394;2022-10-04T04:46:27;3.00;2.75;0.00
65680;PMS5003;61747;54.966;73.394;2022-10-04T04:48:58;1.25;1.25;0.00
65680;PMS5003;61747;54.966;73.394;2022-10-04T04:51:36;1.50;1.00;0.00
65680;PMS5003;61747;54.966;73.394;2022-10-04T04:54:11;1.00;1.00;0.00
65680;PMS5003;61747;54.966;73.394;2022-10-04T04:56:42;0.00;0.00;0.00
65680;PMS5003;61747;54.966;73.394;2022-10-04T04:59:10;3.00;0.00;0.00
65680;PMS5003;61747;54.966;73.394;2022-10-04T05:01:43;1.00;0.00;0.00
65680;PMS5003;61747;54.966;73.394;2022-10-04T05:06:42;0.00;0.00;0.00
65680;PMS5003;61747;54.966;73.394;2022-10-04T05:09:24;0.00;0.00;0.00
65680;PMS5003;61747;54.966;73.394;2022-10-04T05:11:51;0.00;0.00;0.00
65680;PMS5003;61747;54.966;73.394;2022-10-04T05:14:28;0.00;0.00;0.00
65680;PMS5003;61747;54.966;73.394;2022-10-04T05:16:56;0.00;0.00;0.00
65680;PMS5003;61747;54.966;73.394;2022-10-04T05:19:33;1.00;0.00;0.00
65680;PMS5003;61747;54.966;73.394;2022-10-04T05:22:01;8.00;5.75;1.50
65680;PMS5003;61747;54.966;73.394;2022-10-04T05:24:29;10.00;6.50;2.00
65680;PMS5003;61747;54.966;73.394;2022-10-04T05:27:00;4.75;1.75;0.00
65680;PMS5003;61747;54.966;73.394;2022-10-04T05:29:29;3.00;0.00;0.00
65680;PMS5003;61747;54.966;73.394;2022-10-04T05:34:26;0.00;0.00;0.00
65680;PMS5003;61747;54.966;73.394;2022-10-04T05:37:05;0.00;0.00;0.00
65680;PMS5003;61747;54.966;73.394;2022-10-04T05:39:59;0.00;0.00;0.00
65680;PMS5003;61747;54.966;73.394;2022-10-04T05:42:21;1.00;0.00;0.00
65680;PMS5003;61747;54.966;73.394;2022-10-04T05:44:52;3.00;1.00;0.00
65680;PMS5003;61747;54.966;73.394;2022-10-04T05:47:25;3.00;2.00;0.00
65680;PMS5003;61747;54.966;73.394;2022-10-04T05:49:56;1.00;1.00;0.00
65680;PMS5003;61747;54.966;73.394;2022-10-04T05:52:26;1.75;0.00;0.00
65680;PMS5003;61747;54.966;73.394;2022-10-04T05:55:12;0.00;0.00;0.00
65680;PMS5003;61747;54.966;73.394;2022-10-04T06:00:10;1.00;0.00;0.00
65680;PMS5003;61747;54.966;73.394;2022-10-04T06:05:22;0.00;0.00;0.00
65680;PMS5003;61747;54.966;73.394;2022-10-04T06:07:57;0.00;0.00;0.00
65680;PMS5003;61747;54.966;73.394;2022-10-04T06:12:58;3.75;1.50;0.00
65680;PMS5003;61747;54.966;73.394;2022-10-04T06:18:20;1.00;0.00;0.00
65680;PMS5003;61747;54.966;73.394;2022-10-04T06:23:17;0.00;0.00;0.00
65680;PMS5003;61747;54.966;73.394;2022-10-04T06:25:50;6.50;4.25;2.00
65680;PMS5003;61747;54.966;73.394;2022-10-04T06:28:23;3.25;1.75;0.50
65680;PMS5003;61747;54.966;73.394;2022-10-04T06:30:53;0.00;0.00;0.00
65680;PMS5003;61747;54.966;73.394;2022-10-04T06:33:33;1.25;0.00;0.00
65680;PMS5003;61747;54.966;73.394;2022-10-04T07:01:58;0.00;0.00;0.00
65680;PMS5003;61747;54.966;73.394;2022-10-04T07:07:34;0.00;0.00;0.00
65680;PMS5003;61747;54.966;73.394;2022-10-04T07:10:02;0.00;0.00;0.00
65680;PMS5003;61747;54.966;73.394;2022-10-04T07:12:31;0.00;0.00;0.00
65680;PMS5003;61747;54.966;73.394;2022-10-04T07:14:59;0.00;0.00;0.00
65680;PMS5003;61747;54.966;73.394;2022-10-04T07:17:36;0.00;0.00;0.00
65680;PMS5003;61747;54.966;73.394;2022-10-04T07:20:13;0.00;0.00;0.00
65680;PMS5003;61747;54.966;73.394;2022-10-04T07:22:43;0.00;0.00;0.00
65680;PMS5003;61747;54.966;73.394;2022-10-04T07:25:14;0.00;0.00;0.00
65680;PMS5003;61747;54.966;73.394;2022-10-04T07:30:16;0.00;0.00;0.00
65680;PMS5003;61747;54.966;73.394;2022-10-04T07:32:45;0.00;0.00;0.00
65680;PMS5003;61747;54.966;73.394;2022-10-04T07:37:49;0.00;0.00;0.00
65680;PMS5003;61747;54.966;73.394;2022-10-04T07:42:59;0.00;0.00;0.00
65680;PMS5003;61747;54.966;73.394;2022-10-04T07:45:29;1.00;0.00;0.00
65680;PMS5003;61747;54.966;73.394;2022-10-04T07:48:04;0.00;0.00;0.00
65680;PMS5003;61747;54.966;73.394;2022-10-04T07:53:42;0.00;0.00;0.00
65680;PMS5003;61747;54.966;73.394;2022-10-04T07:56:12;0.00;0.00;0.00
65680;PMS5003;61747;54.966;73.394;2022-10-04T08:01:19;0.00;0.00;0.00
65680;PMS5003;61747;54.966;73.394;2022-10-04T08:06:36;0.00;0.00;0.00
65680;PMS5003;61747;54.966;73.394;2022-10-04T08:16:55;0.00;0.00;0.00
65680;PMS5003;61747;54.966;73.394;2022-10-04T08:22:04;0.00;0.00;0.00
65680;PMS5003;61747;54.966;73.394;2022-10-04T08:24:38;0.00;0.00;0.00
65680;PMS5003;61747;54.966;73.394;2022-10-04T08:40:26;0.00;0.00;0.00
65680;PMS5003;61747;54.966;73.394;2022-10-04T08:48:38;0.00;0.00;0.00
65680;PMS5003;61747;54.966;73.394;2022-10-04T08:56:25;0.00;0.00;0.00
65680;PMS5003;61747;54.966;73.394;2022-10-04T09:17:13;0.00;0.00;0.00
65680;PMS5003;61747;54.966;73.394;2022-10-04T09:22:15;0.00;0.00;0.00
65680;PMS5003;61747;54.966;73.394;2022-10-04T09:35:47;0.00;0.00;0.00
65680;PMS5003;61747;54.966;73.394;2022-10-04T09:40:59;0.00;0.00;0.00
65680;PMS5003;61747;54.966;73.394;2022-10-04T09:56:26;0.75;0.00;0.00
65680;PMS5003;61747;54.966;73.394;2022-10-04T09:59:09;1.00;0.00;0.00
65680;PMS5003;61747;54.966;73.394;2022-10-04T10:02:06;1.00;0.00;0.00
65680;PMS5003;61747;54.966;73.394;2022-10-04T10:21:25;1.00;1.00;0.00
65680;PMS5003;61747;54.966;73.394;2022-10-04T10:32:18;1.00;0.25;0.00
65680;PMS5003;61747;54.966;73.394;2022-10-04T10:40:06;1.50;1.00;0.00
65680;PMS5003;61747;54.966;73.394;2022-10-04T10:42:59;4.00;3.00;0.00
65680;PMS5003;61747;54.966;73.394;2022-10-04T10:48:21;2.75;2.75;0.00
65680;PMS5003;61747;54.966;73.394;2022-10-04T10:50:59;2.25;1.00;0.00
65680;PMS5003;61747;54.966;73.394;2022-10-04T11:08:44;3.00;2.00;0.00
65680;PMS5003;61747;54.966;73.394;2022-10-04T11:40:28;1.25;1.00;0.00
65680;PMS5003;61747;54.966;73.394;2022-10-04T12:01:53;3.00;3.00;1.00
65680;PMS5003;61747;54.966;73.394;2022-10-04T12:09:48;2.00;1.75;0.00
65680;PMS5003;61747;54.966;73.394;2022-10-04T12:25:44;3.00;2.00;0.00
65680;PMS5003;61747;54.966;73.394;2022-10-04T12:28:20;2.00;2.00;0.00
65680;PMS5003;61747;54.966;73.394;2022-10-04T12:44:06;5.00;4.00;0.00
65680;PMS5003;61747;54.966;73.394;2022-10-04T12:46:55;6.00;4.25;0.00
65680;PMS5003;61747;54.966;73.394;2022-10-04T12:54:38;3.00;3.00;0.00
65680;PMS5003;61747;54.966;73.394;2022-10-04T13:00:12;1.00;1.00;0.00
65680;PMS5003;61747;54.966;73.394;2022-10-04T13:15:28;2.25;2.25;1.00
65680;PMS5003;61747;54.966;73.394;2022-10-04T13:18:02;3.00;3.00;1.00
65680;PMS5003;61747;54.966;73.394;2022-10-04T13:20:59;3.50;3.00;1.00
65680;PMS5003;61747;54.966;73.394;2022-10-04T13:36:48;4.00;3.75;2.00
65680;PMS5003;61747;54.966;73.394;2022-10-04T13:47:16;3.00;3.00;1.00
65680;PMS5003;61747;54.966;73.394;2022-10-04T13:55:41;3.00;3.00;0.00
65680;PMS5003;61747;54.966;73.394;2022-10-04T13:58:49;5.00;3.00;0.00
65680;PMS5003;61747;54.966;73.394;2022-10-04T14:01:37;7.50;5.00;0.00
65680;PMS5003;61747;54.966;73.394;2022-10-04T14:06:51;4.00;4.00;2.00
65680;PMS5003;61747;54.966;73.394;2022-10-04T14:17:12;3.00;3.00;0.00
65680;PMS5003;61747;54.966;73.394;2022-10-04T14:20:08;4.25;4.00;1.00
65680;PMS5003;61747;54.966;73.394;2022-10-04T14:28:13;7.00;7.00;1.00
65680;PMS5003;61747;54.966;73.394;2022-10-04T14:36:00;7.00;5.00;2.00
65680;PMS5003;61747;54.966;73.394;2022-10-04T14:38:45;5.25;5.00;2.00
65680;PMS5003;61747;54.966;73.394;2022-10-04T14:49:39;13.25;7.50;3.75
65680;PMS5003;61747;54.966;73.394;2022-10-04T14:52:22;15.00;8.75;4.00
65680;PMS5003;61747;54.966;73.394;2022-10-04T15:00:16;13.00;8.00;3.25
65680;PMS5003;61747;54.966;73.394;2022-10-04T15:02:48;13.00;7.00;3.00
65680;PMS5003;61747;54.966;73.394;2022-10-04T15:11:07;14.00;10.75;4.00
65680;PMS5003;61747;54.966;73.394;2022-10-04T15:16:04;14.00;10.75;4.00
65680;PMS5003;61747;54.966;73.394;2022-10-04T15:18:43;14.00;10.50;3.00
65680;PMS5003;61747;54.966;73.394;2022-10-04T15:23:45;12.00;7.50;3.00
65680;PMS5003;61747;54.966;73.394;2022-10-04T15:33:39;5.00;4.00;2.00
65680;PMS5003;61747;54.966;73.394;2022-10-04T15:36:15;6.00;3.75;1.00
65680;PMS5003;61747;54.966;73.394;2022-10-04T15:38:54;3.00;3.00;1.00
65680;PMS5003;61747;54.966;73.394;2022-10-04T15:54:32;1.00;1.00;0.00
65680;PMS5003;61747;54.966;73.394;2022-10-04T15:57:22;1.00;1.00;0.00
65680;PMS5003;61747;54.966;73.394;2022-10-04T16:02:44;1.00;1.00;0.00
65680;PMS5003;61747;54.966;73.394;2022-10-04T16:10:27;1.00;0.00;0.00
65680;PMS5003;61747;54.966;73.394;2022-10-04T16:20:49;0.00;0.00;0.00
65680;PMS5003;61747;54.966;73.394;2022-10-04T16:23:38;1.00;0.00;0.00
65680;PMS5003;61747;54.966;73.394;2022-10-04T16:28:45;0.00;0.00;0.00
65680;PMS5003;61747;54.966;73.394;2022-10-04T16:31:20;0.00;0.00;0.00
65680;PMS5003;61747;54.966;73.394;2022-10-04T16:33:55;0.00;0.00;0.00
65680;PMS5003;61747;54.966;73.394;2022-10-04T16:36:44;0.50;0.00;0.00
65680;PMS5003;61747;54.966;73.394;2022-10-04T16:39:35;0.00;0.00;0.00
65680;PMS5003;61747;54.966;73.394;2022-10-04T17:07:12;0.00;0.00;0.00
65680;PMS5003;61747;54.966;73.394;2022-10-04T17:09:16;0.00;0.00;0.00
65680;PMS5003;61747;54.966;73.394;2022-10-04T17:17:00;0.00;0.00;0.00
65680;PMS5003;61747;54.966;73.394;2022-10-04T17:22:23;0.00;0.00;0.00
65680;PMS5003;61747;54.966;73.394;2022-10-04T17:30:23;0.00;0.00;0.00
65680;PMS5003;61747;54.966;73.394;2022-10-04T17:38:21;1.00;0.00;0.00
65680;PMS5003;61747;54.966;73.394;2022-10-04T17:48:26;0.00;0.00;0.00
65680;PMS5003;61747;54.966;73.394;2022-10-04T17:54:37;0.00;0.00;0.00
65680;PMS5003;61747;54.966;73.394;2022-10-04T17:59:57;0.00;0.00;0.00
65680;PMS5003;61747;54.966;73.394;2022-10-04T18:05:20;0.00;0.00;0.00
65680;PMS5003;61747;54.966;73.394;2022-10-04T18:07:54;0.00;0.00;0.00
65680;PMS5003;61747;54.966;73.394;2022-10-04T18:10:32;0.00;0.00;0.00
65680;PMS5003;61747;54.966;73.394;2022-10-04T18:13:03;0.00;0.00;0.00
65680;PMS5003;61747;54.966;73.394;2022-10-04T18:18:07;0.00;0.00;0.00
65680;PMS5003;61747;54.966;73.394;2022-10-04T18:23:25;0.00;0.00;0.00
65680;PMS5003;61747;54.966;73.394;2022-10-04T18:26:01;0.00;0.00;0.00
65680;PMS5003;61747;54.966;73.394;2022-10-04T18:28:29;0.00;0.00;0.00
65680;PMS5003;61747;54.966;73.394;2022-10-04T18:31:00;0.00;0.00;0.00
65680;PMS5003;61747;54.966;73.394;2022-10-04T18:38:41;0.00;0.00;0.00
65680;PMS5003;61747;54.966;73.394;2022-10-04T18:41:15;0.00;0.00;0.00
65680;PMS5003;61747;54.966;73.394;2022-10-04T18:46:19;0.00;0.00;0.00
65680;PMS5003;61747;54.966;73.394;2022-10-04T18:49:14;0.00;0.00;0.00
65680;PMS5003;61747;54.966;73.394;2022-10-04T19:12:33;0.00;0.00;0.00
65680;PMS5003;61747;54.966;73.394;2022-10-04T19:20:24;0.00;0.00;0.00
65680;PMS5003;61747;54.966;73.394;2022-10-04T19:25:54;0.25;0.00;0.00
65680;PMS5003;61747;54.966;73.394;2022-10-04T19:28:26;0.00;0.00;0.00
65680;PMS5003;61747;54.966;73.394;2022-10-04T19:33:30;0.00;0.00;0.00
65680;PMS5003;61747;54.966;73.394;2022-10-04T19:36:01;0.00;0.00;0.00
65680;PMS5003;61747;54.966;73.394;2022-10-04T19:46:25;0.00;0.00;0.00
65680;PMS5003;61747;54.966;73.394;2022-10-04T19:48:52;0.00;0.00;0.00
65680;PMS5003;61747;54.966;73.394;2022-10-04T19:51:25;0.00;0.00;0.00
65680;PMS5003;61747;54.966;73.394;2022-10-04T19:54:11;1.00;0.00;0.00
65680;PMS5003;61747;54.966;73.394;2022-10-04T19:56:44;0.00;0.00;0.00
65680;PMS5003;61747;54.966;73.394;2022-10-04T19:59:19;0.00;0.00;0.00
65680;PMS5003;61747;54.966;73.394;2022-10-04T20:01:52;0.00;0.00;0.00
65680;PMS5003;61747;54.966;73.394;2022-10-04T20:04:17;0.00;0.00;0.00
65680;PMS5003;61747;54.966;73.394;2022-10-04T20:07:22;0.00;0.00;0.00
65680;PMS5003;61747;54.966;73.394;2022-10-04T20:09:49;1.00;0.00;0.00
65680;PMS5003;61747;54.966;73.394;2022-10-04T20:17:39;0.00;0.00;0.00
65680;PMS5003;61747;54.966;73.394;2022-10-04T20:20:05;0.00;0.00;0.00
65680;PMS5003;61747;54.966;73.394;2022-10-04T20:28:04;0.00;0.00;0.00
65680;PMS5003;61747;54.966;73.394;2022-10-04T20:44:02;0.00;0.00;0.00
65680;PMS5003;61747;54.966;73.394;2022-10-04T20:46:35;0.00;0.00;0.00
65680;PMS5003;61747;54.966;73.394;2022-10-04T20:49:13;0.00;0.00;0.00
65680;PMS5003;61747;54.966;73.394;2022-10-04T20:51:48;0.00;0.00;0.00
65680;PMS5003;61747;54.966;73.394;2022-10-04T20:54:15;0.00;0.00;0.00
65680;PMS5003;61747;54.966;73.394;2022-10-04T20:56:42;0.00;0.00;0.00
65680;PMS5003;61747;54.966;73.394;2022-10-04T20:59:12;0.00;0.00;0.00
65680;PMS5003;61747;54.966;73.394;2022-10-04T21:02:01;0.00;0.00;0.00
65680;PMS5003;61747;54.966;73.394;2022-10-04T21:04:29;0.00;0.00;0.00
65680;PMS5003;61747;54.966;73.394;2022-10-04T21:07:06;0.00;0.00;0.00
65680;PMS5003;61747;54.966;73.394;2022-10-04T21:09:36;0.00;0.00;0.00
65680;PMS5003;61747;54.966;73.394;2022-10-04T21:12:02;0.00;0.00;0.00
65680;PMS5003;61747;54.966;73.394;2022-10-04T21:16:54;0.00;0.00;0.00
65680;PMS5003;61747;54.966;73.394;2022-10-04T21:22:01;0.00;0.00;0.00
65680;PMS5003;61747;54.966;73.394;2022-10-04T21:26:57;0.00;0.00;0.00
65680;PMS5003;61747;54.966;73.394;2022-10-04T21:29:28;0.00;0.00;0.00
65680;PMS5003;61747;54.966;73.394;2022-10-04T21:31:57;0.00;0.00;0.00
65680;PMS5003;61747;54.966;73.394;2022-10-04T21:34:23;0.00;0.00;0.00
65680;PMS5003;61747;54.966;73.394;2022-10-04T21:36:53;0.00;0.00;0.00
65680;PMS5003;61747;54.966;73.394;2022-10-04T21:39:18;0.00;0.00;0.00
65680;PMS5003;61747;54.966;73.394;2022-10-04T21:41:44;0.00;0.00;0.00
65680;PMS5003;61747;54.966;73.394;2022-10-04T21:44:10;1.00;0.00;0.00
65680;PMS5003;61747;54.966;73.394;2022-10-04T21:46:35;0.00;0.00;0.00
65680;PMS5003;61747;54.966;73.394;2022-10-04T21:49:02;0.00;0.00;0.00
65680;PMS5003;61747;54.966;73.394;2022-10-04T21:51:28;0.00;0.00;0.00
65680;PMS5003;61747;54.966;73.394;2022-10-04T21:54:03;0.00;0.00;0.00
65680;PMS5003;61747;54.966;73.394;2022-10-04T21:56:29;0.00;0.00;0.00
65680;PMS5003;61747;54.966;73.394;2022-10-04T21:58:54;0.00;0.00;0.00
65680;PMS5003;61747;54.966;73.394;2022-10-04T22:01:20;0.00;0.00;0.00
65680;PMS5003;61747;54.966;73.394;2022-10-04T22:03:51;1.00;0.00;0.00
65680;PMS5003;61747;54.966;73.394;2022-10-04T22:06:27;0.00;0.00;0.00
65680;PMS5003;61747;54.966;73.394;2022-10-04T22:08:53;0.00;0.00;0.00
65680;PMS5003;61747;54.966;73.394;2022-10-04T22:11:18;0.00;0.00;0.00
65680;PMS5003;61747;54.966;73.394;2022-10-04T22:13:44;0.00;0.00;0.00
65680;PMS5003;61747;54.966;73.394;2022-10-04T22:16:11;1.00;0.00;0.00
65680;PMS5003;61747;54.966;73.394;2022-10-04T22:18:36;0.00;0.00;0.00
65680;PMS5003;61747;54.966;73.394;2022-10-04T22:21:02;0.00;0.00;0.00
65680;PMS5003;61747;54.966;73.394;2022-10-04T22:23:28;0.00;0.00;0.00
65680;PMS5003;61747;54.966;73.394;2022-10-04T22:25:57;0.00;0.00;0.00
65680;PMS5003;61747;54.966;73.394;2022-10-04T22:28:33;0.00;0.00;0.00
65680;PMS5003;61747;54.966;73.394;2022-10-04T22:31:11;0.00;0.00;0.00
65680;PMS5003;61747;54.966;73.394;2022-10-04T22:33:38;0.00;0.00;0.00
65680;PMS5003;61747;54.966;73.394;2022-10-04T22:38:35;0.00;0.00;0.00
65680;PMS5003;61747;54.966;73.394;2022-10-04T22:41:04;0.00;0.00;0.00
65680;PMS5003;61747;54.966;73.394;2022-10-04T22:43:32;0.00;0.00;0.00
65680;PMS5003;61747;54.966;73.394;2022-10-04T22:45:58;0.00;0.00;0.00
65680;PMS5003;61747;54.966;73.394;2022-10-04T22:48:24;0.00;0.00;0.00
65680;PMS5003;61747;54.966;73.394;2022-10-04T22:50:54;0.00;0.00;0.00
65680;PMS5003;61747;54.966;73.394;2022-10-04T22:53:21;0.00;0.00;0.00
65680;PMS5003;61747;54.966;73.394;2022-10-04T22:55:47;0.50;0.00;0.00
65680;PMS5003;61747;54.966;73.394;2022-10-04T22:58:14;0.00;0.00;0.00
65680;PMS5003;61747;54.966;73.394;2022-10-04T23:00:40;0.00;0.00;0.00
65680;PMS5003;61747;54.966;73.394;2022-10-04T23:05:50;0.00;0.00;0.00
65680;PMS5003;61747;54.966;73.394;2022-10-04T23:08:16;0.00;0.00;0.00
65680;PMS5003;61747;54.966;73.394;2022-10-04T23:10:43;0.00;0.00;0.00
65680;PMS5003;61747;54.966;73.394;2022-10-04T23:13:08;0.25;0.00;0.00
65680;PMS5003;61747;54.966;73.394;2022-10-04T23:15:34;2.00;0.00;0.00
65680;PMS5003;61747;54.966;73.394;2022-10-04T23:18:00;1.00;0.00;0.00
65680;PMS5003;61747;54.966;73.394;2022-10-04T23:20:27;0.00;0.00;0.00
65680;PMS5003;61747;54.966;73.394;2022-10-04T23:22:53;0.75;0.00;0.00
65680;PMS5003;61747;54.966;73.394;2022-10-04T23:25:26;0.00;0.00;0.00
65680;PMS5003;61747;54.966;73.394;2022-10-04T23:27:56;0.00;0.00;0.00
65680;PMS5003;61747;54.966;73.394;2022-10-04T23:30:23;0.00;0.00;0.00
65680;PMS5003;61747;54.966;73.394;2022-10-04T23:32:49;0.00;0.00;0.00
65680;PMS5003;61747;54.966;73.394;2022-10-04T23:35:18;1.00;0.75;0.00
65680;PMS5003;61747;54.966;73.394;2022-10-04T23:37:44;0.00;0.00;0.00
65680;PMS5003;61747;54.966;73.394;2022-10-04T23:40:10;0.00;0.00;0.00
65680;PMS5003;61747;54.966;73.394;2022-10-04T23:42:37;0.00;0.00;0.00
65680;PMS5003;61747;54.966;73.394;2022-10-04T23:45:07;0.00;0.00;0.00
65680;PMS5003;61747;54.966;73.394;2022-10-04T23:47:35;0.00;0.00;0.00
65680;PMS5003;61747;54.966;73.394;2022-10-04T23:50:06;0.00;0.00;0.00
65680;PMS5003;61747;54.966;73.394;2022-10-04T23:52:37;1.00;0.00;0.00
65680;PMS5003;61747;54.966;73.394;2022-10-04T23:55:37;0.00;0.00;0.00
65680;PMS5003;61747;54.966;73.394;2022-10-04T23:57:57;0.00;0.00;0.00
